Time,TemperatureF,DewpointF,PressureIn,WindDirection,WindDirectionDegrees,WindSpeedMPH,WindSpeedGustMPH,Humidity,HourlyPrecipIn,Conditions,Clouds,dailyrainin,SoftwareType,DateUTC
2013-02-10 00:01:00,35.0,18.0,30.24,SW,231,0.0,3.0,50,0.00,,,0.00,,2013-02-10 05:01:00,
2013-02-10 00:11:00,35.0,18.0,30.24,SW,231,0.0,3.0,50,0.00,,,0.00,,2013-02-10 05:11:00,
2013-02-10 00:22:00,36.0,18.0,30.24,SSW,206,0.0,5.0,48,0.00,,,0.00,,2013-02-10 05:22:00,
2013-02-10 00:32:00,35.0,18.0,30.23,SSW,206,0.0,0.0,50,0.00,,,0.00,,2013-02-10 05:32:00,
2013-02-10 00:41:00,35.0,18.0,30.23,SSW,206,0.0,0.0,50,0.00,,,0.00,,2013-02-10 05:41:00,
2013-02-10 00:52:00,33.0,18.0,30.23,SSW,206,0.0,0.0,54,0.00,,,0.00,,2013-02-10 05:52:00,
2013-02-10 01:02:00,33.0,19.0,30.23,SSW,213,0.0,3.0,55,0.00,,,0.00,,2013-02-10 06:02:00,
2013-02-10 01:11:00,33.0,19.0,30.23,SSW,213,0.0,3.0,55,0.00,,,0.00,,2013-02-10 06:11:00,
2013-02-10 01:21:00,34.0,19.0,30.23,WSW,238,0.0,0.0,53,0.00,,,0.00,,2013-02-10 06:21:00,
2013-02-10 01:32:00,37.0,20.0,30.23,South,190,3.0,6.0,49,0.00,,,0.00,,2013-02-10 06:32:00,
2013-02-10 01:42:00,37.0,20.0,30.23,South,190,3.0,6.0,49,0.00,,,0.00,,2013-02-10 06:42:00,
2013-02-10 01:52:00,37.0,19.0,30.24,SW,220,3.0,7.0,47,0.00,,,0.00,,2013-02-10 06:52:00,
2013-02-10 02:01:00,37.0,19.0,30.24,WSW,244,2.0,7.0,48,0.00,,,0.00,,2013-02-10 07:01:00,
2013-02-10 02:11:00,37.0,19.0,30.24,WSW,244,2.0,7.0,48,0.00,,,0.00,,2013-02-10 07:11:00,
2013-02-10 02:21:00,37.0,19.0,30.24,SW,229,4.0,7.0,48,0.00,,,0.00,,2013-02-10 07:21:00,
2013-02-10 02:31:00,36.0,18.0,30.24,SSW,196,4.0,10.0,48,0.00,,,0.00,,2013-02-10 07:31:00,
2013-02-10 02:42:00,36.0,18.0,30.24,SSW,196,4.0,10.0,48,0.00,,,0.00,,2013-02-10 07:42:00,
2013-02-10 02:52:00,36.0,19.0,30.25,SW,229,3.0,6.0,49,0.00,,,0.00,,2013-02-10 07:52:00,
2013-02-10 03:01:00,36.0,19.0,30.25,SW,233,2.0,5.0,49,0.00,,,0.00,,2013-02-10 08:01:00,
2013-02-10 03:11:00,36.0,19.0,30.25,SW,233,2.0,5.0,49,0.00,,,0.00,,2013-02-10 08:11:00,
2013-02-10 03:21:00,36.0,19.0,30.25,SW,229,2.0,7.0,49,0.00,,,0.00,,2013-02-10 08:21:00,
2013-02-10 03:32:00,36.0,19.0,30.24,WSW,242,3.0,7.0,49,0.00,,,0.00,,2013-02-10 08:32:00,
2013-02-10 03:43:00,36.0,19.0,30.24,WSW,242,3.0,7.0,49,0.00,,,0.00,,2013-02-10 08:43:00,
2013-02-10 03:52:00,36.0,19.0,30.24,West,265,2.0,6.0,49,0.00,,,0.00,,2013-02-10 08:52:00,
2013-02-10 04:02:00,36.0,18.0,30.24,WSW,249,3.0,7.0,48,0.00,,,0.00,,2013-02-10 09:02:00,
2013-02-10 04:11:00,36.0,18.0,30.24,WSW,249,3.0,7.0,48,0.00,,,0.00,,2013-02-10 09:11:00,
2013-02-10 04:21:00,36.0,18.0,30.24,SW,232,1.0,6.0,48,0.00,,,0.00,,2013-02-10 09:21:00,
2013-02-10 04:32:00,36.0,18.0,30.24,SW,225,1.0,6.0,47,0.00,,,0.00,,2013-02-10 09:32:00,
2013-02-10 04:42:00,36.0,18.0,30.24,SW,225,1.0,6.0,47,0.00,,,0.00,,2013-02-10 09:42:00,
2013-02-10 04:52:00,36.0,18.0,30.24,SW,232,0.0,6.0,47,0.00,,,0.00,,2013-02-10 09:52:00,
2013-02-10 05:01:00,36.0,18.0,30.24,South,188,3.0,10.0,47,0.00,,,0.00,,2013-02-10 10:01:00,
2013-02-10 05:11:00,37.0,18.0,30.24,South,186,3.0,10.0,46,0.00,,,0.00,,2013-02-10 10:11:00,
2013-02-10 05:21:00,37.0,18.0,30.24,South,186,3.0,10.0,46,0.00,,,0.00,,2013-02-10 10:21:00,
2013-02-10 05:31:00,36.0,18.0,30.24,WSW,257,5.0,10.0,47,0.00,,,0.00,,2013-02-10 10:31:00,
2013-02-10 05:42:00,36.0,18.0,30.24,WSW,257,5.0,10.0,47,0.00,,,0.00,,2013-02-10 10:42:00,
2013-02-10 05:52:00,36.0,18.0,30.24,WSW,247,3.0,8.0,47,0.00,,,0.00,,2013-02-10 10:52:00,
2013-02-10 06:01:00,36.0,18.0,30.24,SW,236,2.0,8.0,47,0.00,,,0.00,,2013-02-10 11:01:00,
2013-02-10 06:11:00,36.0,18.0,30.24,SW,236,2.0,8.0,47,0.00,,,0.00,,2013-02-10 11:11:00,
2013-02-10 06:22:00,36.0,18.0,30.25,WSW,241,5.0,10.0,48,0.00,,,0.00,,2013-02-10 11:22:00,
2013-02-10 06:32:00,36.0,18.0,30.26,SW,227,3.0,8.0,47,0.00,,,0.00,,2013-02-10 11:32:00,
2013-02-10 06:42:00,36.0,18.0,30.26,SW,227,3.0,8.0,47,0.00,,,0.00,,2013-02-10 11:42:00,
2013-02-10 06:52:00,37.0,19.0,30.25,SW,217,3.0,6.0,47,0.00,,,0.00,,2013-02-10 11:52:00,
2013-02-10 07:02:00,37.0,18.0,30.26,WSW,238,3.0,7.0,46,0.00,,,0.00,,2013-02-10 12:02:00,
2013-02-10 07:12:00,36.0,18.0,30.27,SW,218,2.0,7.0,48,0.00,,,0.00,,2013-02-10 12:12:00,
2013-02-10 07:21:00,36.0,18.0,30.27,SW,218,2.0,7.0,48,0.00,,,0.00,,2013-02-10 12:21:00,
2013-02-10 07:32:00,35.0,18.0,30.28,SW,230,4.0,8.0,49,0.00,,,0.00,,2013-02-10 12:32:00,
2013-02-10 07:42:00,35.0,18.0,30.28,SW,230,4.0,8.0,49,0.00,,,0.00,,2013-02-10 12:42:00,
2013-02-10 07:52:00,35.0,18.0,30.29,WSW,257,2.0,7.0,50,0.00,,,0.00,,2013-02-10 12:52:00,
2013-02-10 08:02:00,35.0,18.0,30.29,SSW,202,4.0,9.0,50,0.00,,,0.00,,2013-02-10 13:02:00,
2013-02-10 08:11:00,35.0,18.0,30.29,SSW,202,4.0,9.0,50,0.00,,,0.00,,2013-02-10 13:11:00,
2013-02-10 08:21:00,35.0,18.0,30.28,SSW,202,0.0,4.0,49,0.00,,,0.00,,2013-02-10 13:21:00,
2013-02-10 08:31:00,36.0,18.0,30.29,SSW,200,0.0,5.0,48,0.00,,,0.00,,2013-02-10 13:31:00,
2013-02-10 08:41:00,36.0,18.0,30.29,SSW,200,0.0,5.0,48,0.00,,,0.00,,2013-02-10 13:41:00,
2013-02-10 08:52:00,36.0,18.0,30.29,SSW,203,5.0,8.0,48,0.00,,,0.00,,2013-02-10 13:52:00,
2013-02-10 09:02:00,36.0,19.0,30.29,SSW,192,6.0,13.0,49,0.00,,,0.00,,2013-02-10 14:02:00,
2013-02-10 09:11:00,36.0,19.0,30.29,SSW,192,6.0,13.0,49,0.00,,,0.00,,2013-02-10 14:11:00,
2013-02-10 09:21:00,36.0,19.0,30.29,WSW,250,5.0,12.0,49,0.00,,,0.00,,2013-02-10 14:21:00,
2013-02-10 09:32:00,36.0,19.0,30.29,SSW,198,5.0,11.0,50,0.00,,,0.00,,2013-02-10 14:32:00,
2013-02-10 09:41:00,36.0,19.0,30.29,SSW,198,5.0,11.0,50,0.00,,,0.00,,2013-02-10 14:41:00,
2013-02-10 09:52:00,38.0,20.0,30.29,SW,217,6.0,13.0,48,0.00,,,0.00,,2013-02-10 14:52:00,
2013-02-10 10:02:00,38.0,20.0,30.29,SSW,200,7.0,17.0,47,0.00,,,0.00,,2013-02-10 15:02:00,
2013-02-10 10:11:00,38.0,20.0,30.29,SSW,200,7.0,17.0,47,0.00,,,0.00,,2013-02-10 15:11:00,
2013-02-10 10:22:00,38.0,20.0,30.29,SSW,202,7.0,13.0,48,0.00,,,0.00,,2013-02-10 15:22:00,
2013-02-10 10:32:00,39.0,20.0,30.29,SSW,213,8.0,17.0,47,0.00,,,0.00,,2013-02-10 15:32:00,
2013-02-10 10:42:00,39.0,20.0,30.29,SSW,213,8.0,17.0,47,0.00,,,0.00,,2013-02-10 15:42:00,
2013-02-10 10:52:00,40.0,20.0,30.27,SW,236,9.0,18.0,44,0.00,,,0.00,,2013-02-10 15:52:00,
2013-02-10 11:02:00,41.0,21.0,30.29,South,190,8.0,16.0,44,0.00,,,0.00,,2013-02-10 16:02:00,
2013-02-10 11:12:00,41.0,20.0,30.29,SW,217,10.0,17.0,43,0.00,,,0.00,,2013-02-10 16:12:00,
2013-02-10 11:22:00,41.0,20.0,30.29,SW,217,10.0,17.0,43,0.00,,,0.00,,2013-02-10 16:22:00,
2013-02-10 11:32:00,42.0,22.0,30.28,SSW,210,8.0,13.0,44,0.00,,,0.00,,2013-02-10 16:32:00,
2013-02-10 11:42:00,42.0,21.0,30.27,South,191,8.0,17.0,43,0.00,,,0.00,,2013-02-10 16:42:00,
2013-02-10 11:52:00,42.0,21.0,30.27,South,191,8.0,17.0,43,0.00,,,0.00,,2013-02-10 16:52:00,
2013-02-10 12:02:00,43.0,22.0,30.26,SSW,208,12.0,19.0,42,0.00,,,0.00,,2013-02-10 17:02:00,
2013-02-10 12:11:00,43.0,22.0,30.26,SSW,208,12.0,19.0,42,0.00,,,0.00,,2013-02-10 17:11:00,
2013-02-10 12:22:00,44.0,22.0,30.25,ESE,113,7.0,15.0,42,0.00,,,0.00,,2013-02-10 17:22:00,
2013-02-10 12:32:00,45.0,23.0,30.24,South,188,8.0,18.0,41,0.00,,,0.00,,2013-02-10 17:32:00,
2013-02-10 12:42:00,45.0,21.0,30.23,SSW,199,8.0,20.0,38,0.00,,,0.00,,2013-02-10 17:42:00,
2013-02-10 12:52:00,45.0,21.0,30.23,SSW,199,8.0,20.0,38,0.00,,,0.00,,2013-02-10 17:52:00,
2013-02-10 13:02:00,44.0,21.0,30.22,South,178,12.0,22.0,39,0.00,,,0.00,,2013-02-10 18:02:00,
2013-02-10 13:12:00,45.0,22.0,30.22,SW,216,12.0,21.0,39,0.00,,,0.00,,2013-02-10 18:12:00,
2013-02-10 13:22:00,45.0,22.0,30.22,SW,216,12.0,21.0,39,0.00,,,0.00,,2013-02-10 18:22:00,
2013-02-10 13:32:00,46.0,22.0,30.22,SSW,206,5.0,15.0,38,0.00,,,0.00,,2013-02-10 18:32:00,
2013-02-10 13:42:00,46.0,22.0,30.22,SSW,206,5.0,15.0,38,0.00,,,0.00,,2013-02-10 18:42:00,
2013-02-10 13:52:00,45.0,22.0,30.21,West,268,8.0,17.0,40,0.00,,,0.00,,2013-02-10 18:52:00,
2013-02-10 14:02:00,45.0,23.0,30.20,South,191,8.0,17.0,41,0.00,,,0.00,,2013-02-10 19:02:00,
2013-02-10 14:12:00,44.0,22.0,30.17,South,188,9.0,22.0,42,0.00,,,0.00,,2013-02-10 19:12:00,
2013-02-10 14:22:00,44.0,22.0,30.17,South,188,9.0,22.0,42,0.00,,,0.00,,2013-02-10 19:22:00,
2013-02-10 14:32:00,45.0,23.0,30.16,SW,223,9.0,15.0,41,0.00,,,0.00,,2013-02-10 19:32:00,
2013-02-10 14:42:00,45.0,23.0,30.16,SSW,205,8.0,17.0,42,0.00,,,0.00,,2013-02-10 19:42:00,
2013-02-10 14:52:00,45.0,23.0,30.16,SSW,205,8.0,17.0,42,0.00,,,0.00,,2013-02-10 19:52:00,
2013-02-10 15:02:00,45.0,22.0,30.16,SSW,194,10.0,19.0,39,0.00,,,0.00,,2013-02-10 20:02:00,
2013-02-10 15:11:00,45.0,22.0,30.16,SSW,194,10.0,19.0,39,0.00,,,0.00,,2013-02-10 20:11:00,
2013-02-10 15:22:00,45.0,21.0,30.16,SSW,198,13.0,23.0,38,0.00,,,0.00,,2013-02-10 20:22:00,
2013-02-10 15:32:00,45.0,22.0,30.17,South,171,10.0,26.0,40,0.00,,,0.00,,2013-02-10 20:32:00,
2013-02-10 15:42:00,44.0,21.0,30.17,SSW,195,12.0,25.0,40,0.00,,,0.00,,2013-02-10 20:42:00,
2013-02-10 15:52:00,44.0,21.0,30.17,SSW,195,12.0,25.0,40,0.00,,,0.00,,2013-02-10 20:52:00,
2013-02-10 16:02:00,44.0,22.0,30.16,WSW,252,6.0,17.0,42,0.00,,,0.00,,2013-02-10 21:02:00,
2013-02-10 16:11:00,43.0,23.0,30.16,SSW,205,7.0,14.0,44,0.00,,,0.00,,2013-02-10 21:11:00,
2013-02-10 16:22:00,43.0,23.0,30.16,SSW,205,7.0,14.0,44,0.00,,,0.00,,2013-02-10 21:22:00,
2013-02-10 16:32:00,43.0,23.0,30.15,WSW,242,7.0,17.0,45,0.00,,,0.00,,2013-02-10 21:32:00,
2013-02-10 16:42:00,42.0,23.0,30.14,SW,217,8.0,15.0,46,0.00,,,0.00,,2013-02-10 21:42:00,
2013-02-10 16:52:00,42.0,23.0,30.14,SW,217,8.0,15.0,46,0.00,,,0.00,,2013-02-10 21:52:00,
2013-02-10 17:02:00,42.0,23.0,30.14,South,176,4.0,15.0,47,0.00,,,0.00,,2013-02-10 22:02:00,
2013-02-10 17:11:00,42.0,24.0,30.15,SSW,197,8.0,20.0,48,0.00,,,0.00,,2013-02-10 22:11:00,
2013-02-10 17:22:00,42.0,24.0,30.15,SSW,197,8.0,20.0,48,0.00,,,0.00,,2013-02-10 22:22:00,
2013-02-10 17:32:00,42.0,24.0,30.15,SSW,194,9.0,18.0,49,0.00,,,0.00,,2013-02-10 22:32:00,
2013-02-10 17:42:00,42.0,24.0,30.15,SW,226,5.0,12.0,49,0.00,,,0.00,,2013-02-10 22:42:00,
2013-02-10 17:53:00,42.0,24.0,30.15,SW,226,5.0,12.0,49,0.00,,,0.00,,2013-02-10 22:53:00,
2013-02-10 18:02:00,42.0,24.0,30.14,SSW,193,4.0,13.0,49,0.00,,,0.00,,2013-02-10 23:02:00,
2013-02-10 18:11:00,42.0,24.0,30.14,SSW,193,4.0,13.0,49,0.00,,,0.00,,2013-02-10 23:11:00,
2013-02-10 18:22:00,42.0,25.0,30.16,SW,214,8.0,15.0,50,0.00,,,0.00,,2013-02-10 23:22:00,
2013-02-10 18:32:00,41.0,24.0,30.16,SSE,164,10.0,15.0,51,0.00,,,0.00,,2013-02-10 23:32:00,
2013-02-10 18:42:00,41.0,27.0,30.17,SW,230,7.0,17.0,56,0.00,,,0.00,,2013-02-10 23:42:00,
2013-02-10 18:52:00,41.0,27.0,30.17,SW,230,7.0,17.0,56,0.00,,,0.00,,2013-02-10 23:52:00,
2013-02-10 19:02:00,39.0,27.0,30.18,SSW,194,5.0,12.0,62,0.00,,,0.00,,2013-02-11 00:02:00,
2013-02-10 19:11:00,38.0,28.0,30.17,West,260,8.0,15.0,66,0.00,,,0.00,,2013-02-11 00:11:00,
2013-02-10 19:22:00,38.0,28.0,30.17,West,260,8.0,15.0,66,0.00,,,0.00,,2013-02-11 00:22:00,
2013-02-10 19:32:00,37.0,29.0,30.18,SSW,205,5.0,10.0,74,0.00,,,0.00,,2013-02-11 00:32:00,
2013-02-10 19:42:00,36.0,30.0,30.19,SSW,197,2.0,10.0,80,0.00,,,0.00,,2013-02-11 00:42:00,
2013-02-10 19:52:00,36.0,30.0,30.19,SSW,197,2.0,10.0,80,0.00,,,0.00,,2013-02-11 00:52:00,
2013-02-10 20:01:00,36.0,31.0,30.17,SW,221,5.0,11.0,83,0.03,,,0.03,,2013-02-11 01:01:00,
2013-02-10 20:11:00,36.0,31.0,30.17,SW,221,5.0,11.0,83,0.03,,,0.03,,2013-02-11 01:11:00,
2013-02-10 20:21:00,35.0,31.0,30.16,SSW,212,4.0,10.0,86,0.08,,,0.08,,2013-02-11 01:21:00,
2013-02-10 20:32:00,35.0,32.0,30.16,SW,233,3.0,8.0,87,0.11,,,0.11,,2013-02-11 01:32:00,
2013-02-10 20:42:00,35.0,32.0,30.16,SSW,211,2.0,12.0,88,0.14,,,0.14,,2013-02-11 01:42:00,
2013-02-10 20:52:00,35.0,32.0,30.16,SSW,211,2.0,12.0,88,0.14,,,0.14,,2013-02-11 01:52:00,
2013-02-10 21:01:00,36.0,33.0,30.16,West,263,4.0,12.0,88,0.12,,,0.15,,2013-02-11 02:01:00,
2013-02-10 21:11:00,36.0,33.0,30.16,West,263,4.0,12.0,88,0.12,,,0.15,,2013-02-11 02:11:00,
2013-02-10 21:21:00,35.0,32.0,30.14,WSW,258,5.0,10.0,89,0.08,,,0.16,,2013-02-11 02:21:00,
2013-02-10 21:32:00,35.0,32.0,30.13,South,176,9.0,14.0,90,0.06,,,0.17,,2013-02-11 02:32:00,
2013-02-10 21:42:00,35.0,32.0,30.15,SW,227,5.0,12.0,90,0.03,,,0.17,,2013-02-11 02:42:00,
2013-02-10 21:52:00,35.0,32.0,30.15,SW,227,5.0,12.0,90,0.03,,,0.17,,2013-02-11 02:52:00,
2013-02-10 22:02:00,34.0,32.0,30.14,SW,236,7.0,13.0,91,0.02,,,0.17,,2013-02-11 03:02:00,
2013-02-10 22:11:00,35.0,33.0,30.13,West,259,6.0,15.0,91,0.02,,,0.18,,2013-02-11 03:11:00,
2013-02-10 22:21:00,35.0,33.0,30.13,West,259,6.0,15.0,91,0.02,,,0.18,,2013-02-11 03:21:00,
2013-02-10 22:32:00,35.0,33.0,30.13,West,260,2.0,7.0,91,0.01,,,0.18,,2013-02-11 03:32:00,
2013-02-10 22:42:00,35.0,33.0,30.11,WSW,244,6.0,13.0,92,0.01,,,0.18,,2013-02-11 03:42:00,
2013-02-10 22:52:00,35.0,33.0,30.11,WSW,244,6.0,13.0,92,0.01,,,0.18,,2013-02-11 03:52:00,
2013-02-10 23:01:00,35.0,33.0,30.12,West,259,3.0,9.0,92,0.01,,,0.18,,2013-02-11 04:01:00,
2013-02-10 23:11:00,35.0,33.0,30.12,West,259,3.0,9.0,92,0.01,,,0.18,,2013-02-11 04:11:00,
2013-02-10 23:21:00,35.0,33.0,30.10,SSW,213,2.0,7.0,93,0.01,,,0.19,,2013-02-11 04:21:00,
2013-02-10 23:32:00,36.0,34.0,30.08,WSW,242,7.0,17.0,93,0.02,,,0.20,,2013-02-11 04:32:00,
2013-02-10 23:42:00,36.0,34.0,30.09,WSW,256,4.0,11.0,94,0.02,,,0.20,,2013-02-11 04:42:00,
2013-02-10 23:52:00,36.0,34.0,30.09,WSW,256,4.0,11.0,94,0.02,,,0.20,,2013-02-11 04:52:00,